createdAt,value
2019-04-26T00:00:00.237Z,14.75
2019-04-26T00:02:41.664Z,14.75
2019-04-26T00:05:10.257Z,14.73
2019-04-26T00:07:38.976Z,14.72
2019-04-26T00:10:16.051Z,14.70
2019-04-26T00:12:52.097Z,14.68
2019-04-26T00:15:48.293Z,14.66
2019-04-26T00:18:16.793Z,14.69
2019-04-26T00:20:45.025Z,14.70
2019-04-26T00:23:14.116Z,14.75
2019-04-26T00:25:42.636Z,14.74
2019-04-26T00:28:11.741Z,14.76
2019-04-26T00:30:40.992Z,14.80
2019-04-26T00:33:09.283Z,14.80
2019-04-26T00:35:47.373Z,14.79
2019-04-26T00:38:07.564Z,14.80
2019-04-26T00:40:36.648Z,14.84
2019-04-26T00:43:04.936Z,14.80
2019-04-26T00:45:33.364Z,14.74
2019-04-26T00:48:01.652Z,14.67
2019-04-26T00:50:30.197Z,14.66
2019-04-26T00:52:58.490Z,14.66
2019-04-26T00:55:26.791Z,14.63
2019-04-26T00:57:55.203Z,14.62
2019-04-26T01:00:24.179Z,14.56
2019-04-26T01:02:54.959Z,14.53
2019-04-26T01:05:23.262Z,14.54
2019-04-26T01:07:53.509Z,14.53
2019-04-26T01:10:23.823Z,14.50
2019-04-26T01:12:53.668Z,14.46
2019-04-26T01:15:24.635Z,14.47
2019-04-26T01:17:54.965Z,14.45
2019-04-26T01:20:27.772Z,14.39
2019-04-26T01:23:01.095Z,14.40
2019-04-26T01:25:45.151Z,14.35
2019-04-26T01:28:19.963Z,14.27
2019-04-26T01:30:50.782Z,14.25
2019-04-26T01:33:21.902Z,14.25
2019-04-26T01:35:53.493Z,14.24
2019-04-26T01:38:23.766Z,14.23
2019-04-26T01:40:56.549Z,14.19
2019-04-26T01:43:44.259Z,14.15
2019-04-26T01:46:22.191Z,14.21
2019-04-26T01:49:02.020Z,14.25
2019-04-26T01:51:39.313Z,14.22
2019-04-26T01:54:12.987Z,14.18
2019-04-26T01:56:42.846Z,14.18
2019-04-26T01:59:15.461Z,14.18
2019-04-26T02:02:03.605Z,14.13
2019-04-26T02:04:35.048Z,14.10
2019-04-26T02:07:05.802Z,14.09
2019-04-26T02:09:35.485Z,14.04
2019-04-26T02:12:06.296Z,13.98
2019-04-26T02:14:36.142Z,13.94
2019-04-26T02:17:06.379Z,13.90
2019-04-26T02:19:36.611Z,13.91
2019-04-26T02:22:19.873Z,13.91
2019-04-26T02:24:50.371Z,13.89
2019-04-26T02:27:28.786Z,13.84
2019-04-26T02:30:00.270Z,13.79
2019-04-26T02:32:32.744Z,13.76
2019-04-26T02:35:03.741Z,13.75
2019-04-26T02:37:36.137Z,13.70
2019-04-26T02:40:09.702Z,13.72
2019-04-26T02:42:43.030Z,13.71
2019-04-26T02:45:49.077Z,13.68
2019-04-26T02:48:30.837Z,13.71
2019-04-26T02:51:05.114Z,13.78
2019-04-26T02:53:43.567Z,13.77
2019-04-26T02:56:28.144Z,13.76
2019-04-26T02:59:44.191Z,13.81
2019-04-26T03:02:24.843Z,13.80
2019-04-26T03:05:14.107Z,13.83
2019-04-26T03:07:55.149Z,13.88
2019-04-26T03:10:40.493Z,13.88
2019-04-26T03:13:21.398Z,13.93
2019-04-26T03:16:12.022Z,13.89
2019-04-26T03:19:02.972Z,13.87
2019-04-26T03:21:54.270Z,13.91
2019-04-26T03:24:29.168Z,13.94
2019-04-26T03:27:17.125Z,13.98
2019-04-26T03:30:22.292Z,13.97
2019-04-26T03:33:23.085Z,13.97
2019-04-26T03:36:23.848Z,13.91
2019-04-26T03:39:12.616Z,13.85
2019-04-26T03:42:17.976Z,13.83
2019-04-26T03:44:58.109Z,13.86
2019-04-26T03:47:31.185Z,13.83
2019-04-26T03:50:11.156Z,13.79
2019-04-26T03:53:15.448Z,13.75
2019-04-26T03:56:18.193Z,13.70
2019-04-26T03:59:08.095Z,13.70
2019-04-26T04:01:47.200Z,13.69
2019-04-26T04:04:37.701Z,13.70
2019-04-26T04:07:10.503Z,13.62
2019-04-26T04:09:44.862Z,13.58
2019-04-26T04:12:20.846Z,13.50
2019-04-26T04:15:06.541Z,13.48
2019-04-26T04:17:50.404Z,13.47
2019-04-26T04:20:58.143Z,13.44
2019-04-26T04:23:51.429Z,13.38
2019-04-26T04:26:46.796Z,13.32
2019-04-26T04:29:56.711Z,13.32
2019-04-26T04:32:49.798Z,13.29
2019-04-26T04:35:23.213Z,13.27
2019-04-26T04:38:09.195Z,13.21
2019-04-26T04:41:32.171Z,13.21
2019-04-26T04:44:16.679Z,13.17
2019-04-26T04:47:22.912Z,13.15
2019-04-26T04:49:50.452Z,13.13
2019-04-26T04:52:28.578Z,13.18
2019-04-26T04:55:08.286Z,13.16
2019-04-26T04:58:04.904Z,13.13
2019-04-26T05:01:35.622Z,13.14
2019-04-26T05:04:22.749Z,13.11
2019-04-26T05:07:24.289Z,13.10
2019-04-26T05:10:10.129Z,13.10
2019-04-26T05:12:54.332Z,13.14
2019-04-26T05:16:03.275Z,13.16
2019-04-26T05:18:58.735Z,13.15
2019-04-26T05:21:59.214Z,13.17
2019-04-26T05:24:49.114Z,13.16
2019-04-26T05:27:42.463Z,13.19
2019-04-26T05:30:41.045Z,13.20
2019-04-26T05:33:26.473Z,13.24
2019-04-26T05:36:05.731Z,13.28
2019-04-26T05:39:07.961Z,13.32
2019-04-26T05:42:39.503Z,13.38
2019-04-26T05:46:15.149Z,13.42
2019-04-26T05:48:59.351Z,13.33
2019-04-26T05:52:26.241Z,13.37
2019-04-26T05:55:51.229Z,13.35
2019-04-26T05:58:35.073Z,13.36
2019-04-26T06:01:36.106Z,13.34
2019-04-26T06:04:41.325Z,13.33
2019-04-26T06:07:29.020Z,13.33
2019-04-26T06:10:21.854Z,13.34
2019-04-26T06:13:27.847Z,13.32
2019-04-26T06:16:09.906Z,13.28
2019-04-26T06:19:02.940Z,13.32
2019-04-26T06:21:40.497Z,13.35
2019-04-26T06:24:25.796Z,13.44
2019-04-26T06:27:34.055Z,13.45
2019-04-26T06:30:09.119Z,13.47
2019-04-26T06:33:05.552Z,13.49
2019-04-26T06:35:35.580Z,13.47
2019-04-26T06:38:54.316Z,13.47
2019-04-26T06:42:07.543Z,13.46
2019-04-26T06:45:17.994Z,13.43
2019-04-26T06:47:58.833Z,13.46
2019-04-26T06:50:38.452Z,13.45
2019-04-26T06:53:45.396Z,13.44
2019-04-26T06:57:07.876Z,13.40
2019-04-26T06:59:54.665Z,13.41
2019-04-26T07:02:36.310Z,13.42
2019-04-26T07:05:17.027Z,13.39
2019-04-26T07:07:59.142Z,13.41
2019-04-26T07:10:52.655Z,13.46
2019-04-26T07:13:52.639Z,13.49
2019-04-26T07:16:36.504Z,13.34
2019-04-26T07:19:52.824Z,13.34
2019-04-26T07:22:56.310Z,13.35
2019-04-26T07:25:55.629Z,13.35
2019-04-26T07:28:43.351Z,13.32
2019-04-26T07:31:20.410Z,13.29
2019-04-26T07:34:11.671Z,13.26
2019-04-26T07:37:16.066Z,13.20
2019-04-26T07:40:50.197Z,13.20
2019-04-26T07:43:51.712Z,13.17
2019-04-26T07:46:53.374Z,13.20
2019-04-26T07:50:04.777Z,13.17
2019-04-26T07:52:55.090Z,13.18
2019-04-26T07:55:47.263Z,13.19
2019-04-26T07:58:53.615Z,13.19
2019-04-26T08:02:06.744Z,13.25
2019-04-26T08:04:42.165Z,13.27
2019-04-26T08:07:19.851Z,13.32
2019-04-26T08:10:14.749Z,13.35
2019-04-26T08:12:52.200Z,13.38
2019-04-26T08:15:44.332Z,13.43
2019-04-26T08:18:21.052Z,13.42
2019-04-26T08:21:02.539Z,13.53
2019-04-26T08:23:41.471Z,13.53
2019-04-26T08:26:15.561Z,13.58
2019-04-26T08:28:48.142Z,13.56
2019-04-26T08:31:24.344Z,13.59
2019-04-26T08:34:00.203Z,13.76
2019-04-26T08:36:33.964Z,13.76
2019-04-26T08:39:09.199Z,13.82
2019-04-26T08:41:41.341Z,13.80
2019-04-26T08:44:34.534Z,13.83
2019-04-26T08:47:16.962Z,13.81
2019-04-26T08:49:54.074Z,13.81
2019-04-26T08:52:29.077Z,13.76
2019-04-26T08:55:00.965Z,13.82
2019-04-26T08:57:34.470Z,13.79
2019-04-26T09:00:10.609Z,13.82
2019-04-26T09:03:15.499Z,13.87
2019-04-26T09:05:56.366Z,13.98
2019-04-26T09:08:29.509Z,14.10
2019-04-26T09:11:01.735Z,14.12
2019-04-26T09:13:35.207Z,14.18
2019-04-26T09:16:10.397Z,14.30
2019-04-26T09:18:43.620Z,14.35
2019-04-26T09:21:13.304Z,14.38
2019-04-26T09:24:02.783Z,14.43
2019-04-26T09:26:46.667Z,14.51
2019-04-26T09:29:38.264Z,14.68
2019-04-26T09:32:13.447Z,14.69
2019-04-26T09:34:43.179Z,14.84
2019-04-26T09:37:12.919Z,15.04
2019-04-26T09:39:43.496Z,15.22
2019-04-26T09:42:21.911Z,15.37
2019-04-26T09:45:08.567Z,15.40
2019-04-26T09:47:50.627Z,15.42
2019-04-26T09:50:26.018Z,15.52
2019-04-26T09:52:58.123Z,15.66
2019-04-26T09:55:35.285Z,15.72
2019-04-26T09:57:58.915Z,15.79
2019-04-26T10:00:29.902Z,15.86
2019-04-26T10:03:01.514Z,16.04
2019-04-26T10:05:31.370Z,16.27
2019-04-26T10:08:01.325Z,16.32
2019-04-26T10:10:35.313Z,16.39
2019-04-26T10:13:27.679Z,16.40
2019-04-26T10:16:02.476Z,16.37
2019-04-26T10:18:32.542Z,16.39
2019-04-26T10:21:02.301Z,16.44
2019-04-26T10:23:32.418Z,16.38
2019-04-26T10:26:03.254Z,16.37
2019-04-26T10:28:32.930Z,16.35
2019-04-26T10:31:02.606Z,16.28
2019-04-26T10:33:32.605Z,16.21
2019-04-26T10:36:03.763Z,16.19
2019-04-26T10:38:33.465Z,16.21
2019-04-26T10:41:04.120Z,16.06
2019-04-26T10:43:33.887Z,16.07
2019-04-26T10:46:04.408Z,16.15
2019-04-26T10:48:34.097Z,16.20
2019-04-26T10:51:07.314Z,16.24
2019-04-26T10:54:01.781Z,16.23
2019-04-26T10:56:55.040Z,16.25
2019-04-26T10:59:39.796Z,16.26
2019-04-26T11:02:13.937Z,16.11
2019-04-26T11:04:43.631Z,15.95
2019-04-26T11:07:13.374Z,15.92
2019-04-26T11:09:41.678Z,15.87
2019-04-26T11:12:11.545Z,15.90
2019-04-26T11:14:39.907Z,15.93
2019-04-26T11:17:11.386Z,16.08
2019-04-26T11:19:38.441Z,16.10
2019-04-26T11:22:06.742Z,16.07
2019-04-26T11:24:35.188Z,16.10
2019-04-26T11:27:09.573Z,16.24
2019-04-26T11:29:37.245Z,16.32
2019-04-26T11:32:06.955Z,16.35
2019-04-26T11:34:36.703Z,16.30
2019-04-26T11:37:06.519Z,16.27
2019-04-26T11:39:36.521Z,16.27
2019-04-26T11:42:07.928Z,16.19
2019-04-26T11:44:39.060Z,16.20
2019-04-26T11:47:08.778Z,16.13
2019-04-26T11:49:41.555Z,16.05
2019-04-26T11:52:10.770Z,15.95
2019-04-26T11:54:40.738Z,15.95
2019-04-26T11:57:11.999Z,16.02
2019-04-26T11:59:42.522Z,16.10
2019-04-26T12:02:15.907Z,16.08
2019-04-26T12:04:55.144Z,16.12
2019-04-26T12:07:30.784Z,16.19
2019-04-26T12:10:05.780Z,16.24
2019-04-26T12:12:35.783Z,16.34
2019-04-26T12:15:08.461Z,16.41
2019-04-26T12:17:37.670Z,16.46
2019-04-26T12:20:07.606Z,16.49
2019-04-26T12:22:39.384Z,16.50
2019-04-26T12:25:09.820Z,16.56
2019-04-26T12:27:40.033Z,16.52
2019-04-26T12:30:10.125Z,16.53
2019-04-26T12:32:39.814Z,16.59
2019-04-26T12:35:09.808Z,16.56
2019-04-26T12:37:39.928Z,16.66
2019-04-26T12:40:12.238Z,16.62
2019-04-26T12:42:43.425Z,16.68
2019-04-26T12:45:31.960Z,16.72
2019-04-26T12:48:03.491Z,16.85
2019-04-26T12:50:37.416Z,16.98
2019-04-26T12:53:05.751Z,17.03
2019-04-26T12:55:35.655Z,17.12
2019-04-26T12:58:03.944Z,17.18
2019-04-26T13:00:33.016Z,17.12
2019-04-26T13:03:03.890Z,17.17
2019-04-26T13:05:32.185Z,17.09
2019-04-26T13:08:00.729Z,17.04
2019-04-26T13:10:41.446Z,16.99
2019-04-26T13:13:23.493Z,16.97
2019-04-26T13:16:11.012Z,16.96
2019-04-26T13:18:41.156Z,16.93
2019-04-26T13:21:12.273Z,16.93
2019-04-26T13:23:42.418Z,16.96
2019-04-26T13:26:12.134Z,16.92
2019-04-26T13:28:41.813Z,16.95
2019-04-26T13:31:11.733Z,17.06
2019-04-26T13:33:41.539Z,17.12
2019-04-26T13:36:11.514Z,17.18
2019-04-26T13:38:43.436Z,17.23
2019-04-26T13:41:13.041Z,17.26
2019-04-26T13:43:44.727Z,17.33
2019-04-26T13:46:30.715Z,17.48
2019-04-26T13:49:08.706Z,17.64
2019-04-26T13:51:38.939Z,17.81
2019-04-26T13:54:08.744Z,17.98
2019-04-26T13:56:38.601Z,18.02
2019-04-26T13:59:09.656Z,18.02
2019-04-26T14:01:39.395Z,17.99
2019-04-26T14:04:09.446Z,18.04
2019-04-26T14:06:40.888Z,18.06
2019-04-26T14:09:13.191Z,17.99
2019-04-26T14:11:43.225Z,17.94
2019-04-26T14:14:12.899Z,17.90
2019-04-26T14:16:42.991Z,17.94
2019-04-26T14:19:15.369Z,17.96
2019-04-26T14:21:44.566Z,17.93
2019-04-26T14:24:28.098Z,17.94
2019-04-26T14:27:01.307Z,18.08
2019-04-26T14:29:32.368Z,18.14
2019-04-26T14:32:04.336Z,18.07
2019-04-26T14:34:36.281Z,18.02
2019-04-26T14:37:10.721Z,17.97
2019-04-26T14:39:49.643Z,18.04
2019-04-26T14:42:08.780Z,18.19
2019-04-26T14:44:48.866Z,18.29
2019-04-26T14:47:14.893Z,18.31
2019-04-26T14:49:43.040Z,18.20
2019-04-26T14:52:14.080Z,18.10
2019-04-26T14:54:45.957Z,18.15
2019-04-26T14:57:22.094Z,18.14
2019-04-26T14:59:58.208Z,18.17
2019-04-26T15:02:47.353Z,18.14
2019-04-26T15:05:33.864Z,17.97
2019-04-26T15:08:05.405Z,17.82
2019-04-26T15:10:43.961Z,17.74
2019-04-26T15:13:14.601Z,17.71
2019-04-26T15:15:34.765Z,17.77
2019-04-26T15:18:03.869Z,17.88
2019-04-26T15:20:34.681Z,17.91
2019-04-26T15:23:04.959Z,17.96
2019-04-26T15:25:36.789Z,18.02
2019-04-26T15:28:06.941Z,18.02
2019-04-26T15:30:43.307Z,18.07
2019-04-26T15:33:12.727Z,18.10
2019-04-26T15:35:42.167Z,18.15
2019-04-26T15:38:11.999Z,18.15
2019-04-26T15:40:54.476Z,18.09
2019-04-26T15:44:02.705Z,18.13
2019-04-26T15:46:50.023Z,18.13
2019-04-26T15:49:38.511Z,18.24
2019-04-26T15:52:08.440Z,18.38
2019-04-26T15:54:38.129Z,18.38
2019-04-26T15:57:08.065Z,18.44
2019-04-26T15:59:37.747Z,18.41
2019-04-26T16:02:08.510Z,18.39
2019-04-26T16:04:38.200Z,18.41
2019-04-26T16:07:07.974Z,18.41
2019-04-26T16:09:39.307Z,18.41
2019-04-26T16:12:09.084Z,18.43
2019-04-26T16:14:38.781Z,18.51
2019-04-26T16:17:08.474Z,18.49
2019-04-26T16:19:38.166Z,18.45
2019-04-26T16:22:07.931Z,18.38
2019-04-26T16:24:37.609Z,18.40
2019-04-26T16:27:07.298Z,18.39
2019-04-26T16:29:50.978Z,18.38
2019-04-26T16:32:47.442Z,18.42
2019-04-26T16:35:18.156Z,18.47
2019-04-26T16:37:48.821Z,18.43
2019-04-26T16:40:18.962Z,18.41
2019-04-26T16:42:54.906Z,18.40
2019-04-26T16:45:22.684Z,18.35
2019-04-26T16:47:53.202Z,18.30
2019-04-26T16:50:31.219Z,18.26
2019-04-26T16:52:55.806Z,18.24
2019-04-26T16:55:25.621Z,18.19
2019-04-26T16:57:58.103Z,18.16
2019-04-26T17:00:47.144Z,18.16
2019-04-26T17:03:06.437Z,18.17
2019-04-26T17:05:47.611Z,18.14
2019-04-26T17:08:10.460Z,18.07
2019-04-26T17:10:39.670Z,18.06
2019-04-26T17:13:09.430Z,18.03
2019-04-26T17:15:39.180Z,17.97
2019-04-26T17:18:08.879Z,17.89
2019-04-26T17:20:40.530Z,17.85
2019-04-26T17:23:39.488Z,17.79
2019-04-26T17:26:29.358Z,17.79
2019-04-26T17:28:59.955Z,17.77
2019-04-26T17:31:29.702Z,17.76
2019-04-26T17:33:59.396Z,17.74
2019-04-26T17:36:29.125Z,17.77
2019-04-26T17:39:00.243Z,17.75
2019-04-26T17:41:33.402Z,17.79
2019-04-26T17:44:10.517Z,17.81
2019-04-26T17:46:36.460Z,17.83
2019-04-26T17:49:06.156Z,17.77
2019-04-26T17:51:42.412Z,17.70
2019-04-26T17:54:26.520Z,17.67
2019-04-26T17:56:52.490Z,17.64
2019-04-26T17:59:32.617Z,17.61
2019-04-26T18:01:59.887Z,17.60
2019-04-26T18:04:32.244Z,17.51
2019-04-26T18:11:48.135Z,17.38
2019-04-26T18:14:21.681Z,17.35
2019-04-26T18:16:57.199Z,17.32
2019-04-26T18:19:44.191Z,17.30
2019-04-26T18:22:28.428Z,17.27
2019-04-26T18:24:56.987Z,17.22
2019-04-26T18:27:29.989Z,17.18
2019-04-26T18:30:06.626Z,17.14
2019-04-26T18:32:33.980Z,17.03
2019-04-26T18:35:02.748Z,16.96
2019-04-26T18:37:36.505Z,16.90
2019-04-26T18:40:04.749Z,16.85
2019-04-26T18:42:37.533Z,16.77
2019-04-26T18:45:08.482Z,16.70
2019-04-26T18:47:40.939Z,16.61
2019-04-26T18:50:10.979Z,16.52
2019-04-26T18:52:50.647Z,16.44
2019-04-26T18:55:29.244Z,16.36
2019-04-26T18:58:01.442Z,16.32
2019-04-26T19:00:36.314Z,16.26
2019-04-26T19:03:06.362Z,16.18
2019-04-26T19:05:36.713Z,16.10
2019-04-26T19:08:07.602Z,16.03
2019-04-26T19:10:38.230Z,15.94
2019-04-26T19:13:32.089Z,15.87
2019-04-26T19:16:06.090Z,15.82
2019-04-26T19:18:45.053Z,15.76
2019-04-26T19:21:39.316Z,15.57
2019-04-26T19:24:17.236Z,15.57
2019-04-26T19:26:44.209Z,15.50
2019-04-26T19:29:18.192Z,15.39
2019-04-26T19:31:43.646Z,15.30
2019-04-26T19:34:13.303Z,15.24
2019-04-26T19:36:43.048Z,15.18
2019-04-26T19:39:12.928Z,15.12
2019-04-26T19:41:44.306Z,15.09
2019-04-26T19:44:14.692Z,15.03
2019-04-26T19:47:07.111Z,14.95
2019-04-26T19:49:54.379Z,14.83
2019-04-26T19:52:46.471Z,14.76
2019-04-26T19:55:35.146Z,14.71
2019-04-26T19:58:16.262Z,14.65
2019-04-26T20:00:46.512Z,14.61
2019-04-26T20:03:16.791Z,14.54
2019-04-26T20:05:45.659Z,14.43
2019-04-26T20:08:15.333Z,14.43
2019-04-26T20:10:45.931Z,14.40
2019-04-26T20:13:16.760Z,14.34
2019-04-26T20:15:46.557Z,14.28
2019-04-26T20:18:17.661Z,14.21
2019-04-26T20:20:47.457Z,14.15
2019-04-26T20:23:19.449Z,14.09
2019-04-26T20:25:48.861Z,14.04
2019-04-26T20:28:18.522Z,13.99
2019-04-26T20:31:05.933Z,13.96
2019-04-26T20:33:31.136Z,13.92
2019-04-26T20:36:04.424Z,13.87
2019-04-26T20:38:35.745Z,13.84
2019-04-26T20:41:04.918Z,13.77
2019-04-26T20:43:36.847Z,13.71
2019-04-26T20:46:14.594Z,13.64
2019-04-26T20:48:39.264Z,13.58
2019-04-26T20:51:10.913Z,13.53
2019-04-26T20:53:43.459Z,13.45
2019-04-26T20:56:18.161Z,13.39
2019-04-26T20:58:47.108Z,13.31
2019-04-26T21:01:16.143Z,13.23
2019-04-26T21:03:46.337Z,13.16
2019-04-26T21:06:16.995Z,13.10
2019-04-26T21:08:47.628Z,13.06
2019-04-26T21:11:16.035Z,12.98
2019-04-26T21:13:44.463Z,12.90
2019-04-26T21:16:15.182Z,12.84
2019-04-26T21:18:44.417Z,12.79
2019-04-26T21:21:15.784Z,12.71
2019-04-26T21:23:43.972Z,12.67
2019-04-26T21:26:29.799Z,12.62
2019-04-26T21:29:20.466Z,12.58
2019-04-26T21:31:59.305Z,12.52
2019-04-26T21:34:30.708Z,12.46
2019-04-26T21:37:17.211Z,12.40
2019-04-26T21:40:17.001Z,12.37
2019-04-26T21:42:45.591Z,12.33
2019-04-26T21:45:15.407Z,12.28
2019-04-26T21:47:45.353Z,12.27
2019-04-26T21:50:15.095Z,12.25
2019-04-26T21:52:45.624Z,12.24
2019-04-26T21:55:16.735Z,12.22
2019-04-26T21:57:46.566Z,12.20
2019-04-26T22:00:34.897Z,12.18
2019-04-26T22:03:07.894Z,12.17
2019-04-26T22:05:43.966Z,12.13
2019-04-26T22:08:17.487Z,12.11
2019-04-26T22:10:46.189Z,12.10
2019-04-26T22:13:31.206Z,12.09
2019-04-26T22:16:29.264Z,12.05
2019-04-26T22:18:56.498Z,11.95
2019-04-26T22:21:30.651Z,11.90
2019-04-26T22:24:13.208Z,11.90
2019-04-26T22:26:47.690Z,11.91
2019-04-26T22:29:16.775Z,11.92
2019-04-26T22:31:45.497Z,11.91
2019-04-26T22:34:15.185Z,11.88
2019-04-26T22:36:44.873Z,11.81
2019-04-26T22:39:14.117Z,11.75
2019-04-26T22:41:44.049Z,11.72
2019-04-26T22:44:34.612Z,11.68
2019-04-26T22:47:16.991Z,11.63
2019-04-26T22:49:45.480Z,11.51
2019-04-26T22:52:16.297Z,11.51
2019-04-26T22:54:46.536Z,11.52
2019-04-26T22:57:16.148Z,11.51
2019-04-26T22:59:49.835Z,11.51
2019-04-26T23:02:18.510Z,11.53
2019-04-26T23:04:45.742Z,11.53
2019-04-26T23:07:18.366Z,11.53
2019-04-26T23:09:51.998Z,11.56
2019-04-26T23:12:31.256Z,11.60
2019-04-26T23:15:14.825Z,11.57
2019-04-26T23:18:11.669Z,11.58
2019-04-26T23:20:49.209Z,11.59
2019-04-26T23:23:18.898Z,11.68
2019-04-26T23:25:48.577Z,11.73
2019-04-26T23:28:18.269Z,11.82
2019-04-26T23:30:48.457Z,11.85
2019-04-26T23:33:18.186Z,11.82
2019-04-26T23:35:47.956Z,11.83
2019-04-26T23:38:17.614Z,11.87
2019-04-26T23:40:47.293Z,11.90
2019-04-26T23:43:16.979Z,11.93
2019-04-26T23:45:48.185Z,11.97
2019-04-26T23:48:18.030Z,12.01
2019-04-26T23:50:47.693Z,12.05
2019-04-26T23:53:20.173Z,12.06
2019-04-26T23:55:48.999Z,12.07
2019-04-26T23:58:18.903Z,12.06
